createdAt,value
2023-04-21T00:03:18.040Z,5.80
2023-04-21T00:08:29.294Z,6.57
2023-04-21T00:13:32.517Z,5.30
2023-04-21T00:18:40.850Z,6.03
2023-04-21T00:23:51.045Z,6.03
2023-04-21T00:28:54.158Z,5.37
2023-04-21T00:33:57.407Z,5.07
2023-04-21T00:39:02.182Z,5.30
2023-04-21T00:44:11.670Z,6.07
2023-04-21T00:49:21.652Z,5.77
2023-04-21T00:54:28.171Z,6.10
2023-04-21T00:59:32.716Z,6.87
2023-04-21T01:04:44.115Z,6.33
2023-04-21T01:09:48.663Z,5.63
2023-04-21T01:14:51.907Z,5.60
2023-04-21T01:19:57.627Z,6.10
2023-04-21T01:25:06.635Z,6.57
2023-04-21T01:30:13.289Z,8.47
2023-04-21T01:35:16.579Z,6.83
2023-04-21T01:40:22.301Z,6.33
2023-04-21T01:45:28.063Z,6.23
2023-04-21T01:50:34.304Z,7.00
2023-04-21T01:55:44.658Z,6.67
2023-04-21T02:00:48.164Z,6.57
2023-04-21T02:05:51.843Z,5.40
2023-04-21T02:10:56.980Z,6.00
2023-04-21T02:16:12.816Z,6.70
2023-04-21T02:21:21.770Z,6.80
2023-04-21T02:26:29.403Z,6.03
2023-04-21T02:31:33.493Z,6.73
2023-04-21T02:36:38.619Z,5.67
2023-04-21T02:41:45.359Z,7.03
2023-04-21T02:46:48.834Z,5.83
2023-04-21T02:52:09.830Z,7.27
2023-04-21T02:57:20.136Z,7.47
2023-04-21T03:02:26.623Z,7.17
2023-04-21T03:07:31.934Z,6.13
2023-04-21T03:12:41.175Z,6.20
2023-04-21T03:17:47.533Z,6.60
2023-04-21T03:22:53.664Z,8.13
2023-04-21T03:27:58.389Z,6.70
2023-04-21T03:33:03.451Z,6.87
2023-04-21T03:38:11.926Z,5.67
2023-04-21T03:43:16.644Z,7.03
2023-04-21T03:48:19.810Z,5.67
2023-04-21T03:53:23.036Z,5.47
2023-04-21T03:58:29.560Z,5.83
2023-04-21T04:03:35.314Z,6.80
2023-04-21T04:08:40.319Z,8.47
2023-04-21T04:13:45.225Z,7.60
2023-04-21T04:18:53.750Z,7.20
2023-04-21T04:23:57.711Z,6.73
2023-04-21T04:29:02.477Z,7.83
2023-04-21T04:34:09.827Z,8.20
2023-04-21T04:39:17.658Z,6.80
2023-04-21T04:44:30.872Z,8.23
2023-04-21T04:49:34.115Z,8.30
2023-04-21T04:54:38.574Z,8.13
2023-04-21T04:59:43.149Z,8.47
2023-04-21T05:04:49.558Z,8.97
2023-04-21T05:09:52.924Z,8.23
2023-04-21T05:14:58.937Z,9.00
2023-04-21T05:20:11.148Z,8.90
2023-04-21T05:25:16.043Z,8.17
2023-04-21T05:30:21.122Z,6.80
2023-04-21T05:35:24.991Z,8.67
2023-04-21T05:40:28.243Z,7.63
2023-04-21T05:45:32.943Z,8.27
2023-04-21T05:50:36.567Z,7.53
2023-04-21T05:55:51.260Z,7.07
2023-04-21T06:00:56.795Z,6.93
2023-04-21T06:06:01.819Z,5.93
2023-04-21T06:11:08.312Z,7.47
2023-04-21T06:16:17.357Z,7.63
2023-04-21T06:21:20.611Z,6.97
2023-04-21T06:26:23.806Z,5.90
2023-04-21T06:31:28.548Z,6.83
2023-04-21T06:36:31.711Z,6.93
2023-04-21T06:41:38.049Z,6.43
2023-04-21T06:46:46.254Z,6.40
2023-04-21T06:51:52.392Z,7.10
2023-04-21T06:56:57.775Z,7.47
2023-04-21T07:02:05.566Z,7.37
2023-04-21T07:07:12.908Z,7.03
2023-04-21T07:12:16.481Z,7.23
2023-04-21T07:17:25.893Z,8.27
2023-04-21T07:22:29.143Z,6.67
2023-04-21T07:27:32.232Z,7.53
2023-04-21T07:32:41.112Z,7.63
2023-04-21T07:37:54.667Z,8.03
2023-04-21T07:42:58.093Z,7.23
2023-04-21T07:48:07.618Z,6.57
2023-04-21T07:53:18.147Z,6.60
2023-04-21T07:58:22.648Z,5.90
2023-04-21T08:03:30.123Z,9.03
2023-04-21T08:08:37.068Z,7.07
2023-04-21T08:13:40.436Z,6.40
2023-04-21T08:18:49.200Z,5.80
2023-04-21T08:23:58.253Z,6.53
2023-04-21T08:29:04.027Z,8.40
2023-04-21T08:34:12.030Z,7.20
2023-04-21T08:39:19.490Z,6.67
2023-04-21T08:44:25.535Z,7.60
2023-04-21T08:49:31.768Z,7.83
2023-04-21T08:54:36.512Z,7.07
2023-04-21T08:59:39.931Z,7.57
2023-04-21T09:04:52.527Z,8.10
2023-04-21T09:10:02.072Z,6.77
2023-04-21T09:15:06.826Z,9.47
2023-04-21T09:20:16.557Z,8.23
2023-04-21T09:25:23.898Z,7.90
2023-04-21T09:30:29.575Z,12.37
2023-04-21T09:35:37.327Z,12.00
2023-04-21T09:40:47.161Z,12.63
2023-04-21T09:45:51.132Z,12.93
2023-04-21T09:56:06.002Z,9.70
2023-04-21T10:01:29.805Z,11.97
2023-04-21T10:07:17.025Z,10.87
2023-04-21T10:13:00.629Z,11.03
2023-04-21T10:18:57.514Z,10.10
2023-04-21T10:25:23.996Z,10.30
2023-04-21T10:31:47.152Z,9.70
2023-04-21T10:38:42.542Z,7.07
2023-04-21T10:43:58.886Z,5.80
2023-04-21T10:50:28.850Z,5.77
2023-04-21T10:56:40.496Z,7.60
2023-04-21T11:15:45.103Z,7.20
2023-04-21T11:28:00.932Z,9.93
2023-04-21T12:07:29.066Z,7.13
2023-04-21T12:51:38.775Z,7.20
2023-04-21T12:58:06.926Z,5.53
2023-04-21T13:11:01.550Z,4.67
2023-04-21T13:16:24.444Z,4.13
2023-04-21T13:21:53.550Z,5.63
2023-04-21T13:27:28.529Z,5.50
2023-04-21T13:32:59.787Z,4.37
2023-04-21T13:38:29.451Z,4.00
2023-04-21T13:44:07.540Z,6.03
2023-04-21T13:49:34.986Z,5.13
2023-04-21T13:55:23.655Z,5.28
2023-04-21T14:01:00.636Z,4.68
2023-04-21T14:06:34.511Z,4.88
2023-04-21T14:12:01.570Z,5.53
2023-04-21T14:17:32.653Z,5.63
2023-04-21T14:22:55.623Z,4.30
2023-04-21T14:28:18.840Z,3.70
2023-04-21T14:33:49.552Z,5.63
2023-04-21T14:39:28.589Z,5.13
2023-04-21T14:44:38.761Z,5.20
2023-04-21T14:49:55.581Z,4.80
2023-04-21T14:55:03.808Z,4.63
2023-04-21T15:00:15.165Z,5.00
2023-04-21T15:05:22.471Z,3.88
2023-04-21T15:10:25.910Z,3.10
2023-04-21T15:15:32.249Z,4.20
2023-04-21T15:20:44.983Z,4.03
2023-04-21T15:26:02.606Z,3.33
2023-04-21T15:31:27.669Z,4.40
2023-04-21T15:36:52.872Z,4.28
2023-04-21T15:42:20.451Z,3.85
2023-04-21T15:47:50.628Z,3.72
2023-04-21T15:53:26.685Z,3.63
2023-04-21T15:58:52.890Z,3.65
2023-04-21T16:04:30.832Z,3.05
2023-04-21T16:09:55.810Z,4.40
2023-04-21T16:15:30.940Z,4.38
2023-04-21T16:20:58.730Z,4.78
2023-04-21T16:26:23.666Z,4.53
2023-04-21T16:31:50.924Z,3.50
2023-04-21T16:37:16.623Z,3.40
2023-04-21T16:42:57.842Z,4.82
2023-04-21T16:54:04.609Z,3.03
2023-04-21T16:59:54.744Z,3.15
2023-04-21T17:05:22.572Z,3.08
2023-04-21T17:16:29.837Z,4.28
2023-04-21T17:21:57.615Z,3.10
2023-04-21T17:27:23.704Z,2.53
2023-04-21T17:38:41.825Z,3.30
2023-04-21T17:44:06.728Z,2.72
2023-04-21T17:49:56.679Z,3.35
2023-04-21T17:55:24.831Z,2.67
2023-04-21T18:00:51.750Z,2.60
2023-04-21T18:06:25.504Z,2.55
2023-04-21T18:11:49.728Z,2.20
2023-04-21T18:17:15.362Z,2.13
2023-04-21T18:22:54.278Z,2.05
2023-04-21T18:28:18.835Z,3.50
2023-04-21T18:33:41.788Z,2.03
2023-04-21T18:39:12.651Z,2.40
2023-04-21T18:44:35.961Z,3.33
2023-04-21T18:50:19.876Z,3.67
2023-04-21T18:55:55.696Z,3.53
2023-04-21T19:01:24.002Z,3.10
2023-04-21T19:06:46.711Z,2.97
2023-04-21T19:12:12.888Z,3.40
2023-04-21T19:17:35.738Z,2.47
2023-04-21T19:22:58.701Z,2.93
2023-04-21T19:28:26.408Z,1.90
2023-04-21T19:33:49.747Z,2.10
2023-04-21T19:39:13.825Z,1.70
2023-04-21T19:44:39.110Z,1.60
2023-04-21T19:50:01.903Z,1.93
2023-04-21T19:55:25.712Z,1.60
2023-04-21T20:00:57.537Z,1.70
2023-04-21T20:06:25.973Z,1.50
2023-04-21T20:17:32.765Z,1.97
2023-04-21T20:22:40.111Z,1.60
2023-04-21T20:27:45.918Z,1.53
2023-04-21T20:32:54.411Z,1.40
2023-04-21T20:38:06.893Z,1.70
2023-04-21T20:48:39.543Z,1.50
2023-04-21T20:59:24.965Z,1.17
2023-04-21T21:45:32.874Z,1.30
2023-04-21T21:50:36.570Z,1.40
2023-04-21T21:55:55.255Z,1.30
2023-04-21T22:01:01.470Z,0.97
2023-04-21T22:06:23.021Z,1.30
2023-04-21T22:11:26.752Z,1.30
2023-04-21T22:16:35.191Z,1.23
2023-04-21T22:21:42.511Z,1.20
2023-04-21T22:26:49.406Z,1.40
2023-04-21T22:31:54.501Z,1.40
2023-04-21T22:36:58.306Z,2.53
2023-04-21T22:42:05.742Z,1.63
2023-04-21T22:47:10.826Z,1.83
2023-04-21T22:52:28.158Z,1.90
2023-04-21T22:57:32.579Z,1.33
2023-04-21T23:02:37.761Z,1.60
2023-04-21T23:07:44.269Z,3.70
2023-04-21T23:12:47.578Z,3.20
2023-04-21T23:17:54.949Z,1.43
2023-04-21T23:23:08.818Z,1.50
2023-04-21T23:28:12.071Z,1.20
2023-04-21T23:33:23.705Z,1.23
2023-04-21T23:38:27.130Z,1.37
2023-04-21T23:43:30.869Z,1.60
2023-04-21T23:48:35.758Z,1.50
2023-04-21T23:53:39.413Z,1.40
2023-04-21T23:58:51.886Z,1.20
